createdAt,value
2023-05-10T00:01:04.693Z,9.29
2023-05-10T00:03:35.198Z,9.26
2023-05-10T00:06:12.089Z,9.24
2023-05-10T00:08:48.474Z,9.20
2023-05-10T00:11:25.238Z,9.17
2023-05-10T00:14:01.675Z,9.14
2023-05-10T00:16:38.244Z,9.11
2023-05-10T00:19:14.972Z,9.06
2023-05-10T00:21:51.434Z,9.05
2023-05-10T00:24:28.104Z,9.05
2023-05-10T00:27:05.267Z,9.01
2023-05-10T00:29:35.407Z,8.97
2023-05-10T00:32:12.328Z,8.95
2023-05-10T00:34:49.221Z,8.95
2023-05-10T00:37:25.796Z,8.92
2023-05-10T00:40:02.368Z,8.90
2023-05-10T00:42:39.844Z,8.82
2023-05-10T00:45:16.640Z,8.87
2023-05-10T00:47:58.288Z,8.85
2023-05-10T00:50:35.595Z,8.85
2023-05-10T00:53:12.891Z,8.83
2023-05-10T00:55:49.553Z,8.83
2023-05-10T00:58:29.417Z,8.81
2023-05-10T01:01:07.304Z,8.80
2023-05-10T01:03:42.788Z,8.80
2023-05-10T01:06:14.938Z,8.77
2023-05-10T01:08:45.588Z,8.76
2023-05-10T01:11:22.476Z,8.75
2023-05-10T01:14:02.978Z,8.74
2023-05-10T01:16:42.856Z,8.73
2023-05-10T01:19:28.574Z,8.72
2023-05-10T01:22:23.146Z,8.71
2023-05-10T01:25:14.355Z,8.70
2023-05-10T01:28:36.240Z,8.69
2023-05-10T01:32:23.965Z,8.69
2023-05-10T01:35:41.595Z,8.68
2023-05-10T01:38:41.236Z,8.67
2023-05-10T01:41:30.427Z,8.66
2023-05-10T01:44:30.844Z,8.64
2023-05-10T01:47:16.864Z,8.61
2023-05-10T01:50:04.149Z,8.60
2023-05-10T01:52:57.001Z,8.58
2023-05-10T01:55:34.825Z,8.54
2023-05-10T01:58:17.799Z,8.52
2023-05-10T02:00:55.292Z,8.50
2023-05-10T02:03:32.628Z,8.47
2023-05-10T02:06:10.507Z,8.44
2023-05-10T02:08:47.265Z,8.42
2023-05-10T02:11:25.632Z,8.38
2023-05-10T02:14:00.349Z,8.37
2023-05-10T02:16:35.105Z,8.35
2023-05-10T02:19:13.014Z,8.33
2023-05-10T02:21:50.141Z,8.31
2023-05-10T02:24:27.681Z,8.26
2023-05-10T02:27:06.040Z,8.23
2023-05-10T02:29:38.620Z,8.21
2023-05-10T02:32:12.723Z,8.17
2023-05-10T02:34:55.356Z,8.13
2023-05-10T02:37:33.623Z,8.09
2023-05-10T02:40:12.691Z,8.07
2023-05-10T02:42:51.171Z,8.04
2023-05-10T02:45:31.557Z,8.01
2023-05-10T02:48:09.572Z,7.83
2023-05-10T02:50:52.962Z,7.92
2023-05-10T02:53:34.764Z,7.87
2023-05-10T02:56:21.089Z,7.84
2023-05-10T02:58:54.178Z,7.82
2023-05-10T03:01:31.795Z,7.81
2023-05-10T03:04:08.431Z,7.79
2023-05-10T03:06:45.903Z,7.77
2023-05-10T03:09:22.928Z,7.77
2023-05-10T03:12:37.326Z,7.74
2023-05-10T03:15:28.690Z,7.71
2023-05-10T03:18:17.536Z,7.71
2023-05-10T03:21:07.360Z,7.69
2023-05-10T03:24:07.673Z,7.69
2023-05-10T03:26:46.972Z,7.70
2023-05-10T03:29:25.142Z,7.72
2023-05-10T03:32:04.815Z,7.71
2023-05-10T03:34:46.403Z,7.72
2023-05-10T03:37:23.619Z,7.66
2023-05-10T03:40:00.677Z,7.73
2023-05-10T03:42:37.465Z,7.75
2023-05-10T03:45:09.014Z,7.75
2023-05-10T03:47:46.506Z,7.75
2023-05-10T03:50:16.991Z,7.75
2023-05-10T03:52:54.822Z,7.78
2023-05-10T03:55:37.079Z,7.83
2023-05-10T03:58:15.175Z,7.95
2023-05-10T04:00:51.919Z,7.94
2023-05-10T04:03:28.742Z,7.96
2023-05-10T04:06:10.368Z,8.01
2023-05-10T04:08:47.760Z,8.09
2023-05-10T04:11:25.938Z,8.17
2023-05-10T04:14:04.102Z,8.24
2023-05-10T04:16:40.470Z,8.32
2023-05-10T04:19:18.676Z,8.32
2023-05-10T04:21:55.141Z,8.26
2023-05-10T04:24:31.713Z,8.46
2023-05-10T04:27:08.650Z,8.50
2023-05-10T04:29:40.107Z,8.58
2023-05-10T04:32:17.499Z,8.67
2023-05-10T04:34:54.461Z,8.75
2023-05-10T04:37:31.414Z,8.83
2023-05-10T04:40:09.121Z,8.91
2023-05-10T04:42:46.258Z,8.93
2023-05-10T04:45:22.749Z,8.98
2023-05-10T04:47:59.542Z,9.07
2023-05-10T04:50:30.948Z,9.24
2023-05-10T04:53:03.438Z,9.37
2023-05-10T04:55:37.154Z,9.49
2023-05-10T04:58:14.154Z,9.61
2023-05-10T05:00:51.282Z,9.79
2023-05-10T05:03:29.106Z,10.09
2023-05-10T05:06:00.317Z,10.39
2023-05-10T05:08:37.826Z,10.89
2023-05-10T05:11:15.034Z,11.57
2023-05-10T05:13:52.092Z,12.68
2023-05-10T05:16:28.818Z,13.71
2023-05-10T05:18:59.310Z,14.80
2023-05-10T05:21:37.547Z,15.45
2023-05-10T05:24:16.065Z,15.91
2023-05-10T05:26:54.329Z,15.87
2023-05-10T05:29:32.869Z,16.21
2023-05-10T05:32:12.012Z,16.87
2023-05-10T05:34:51.025Z,17.23
2023-05-10T05:37:28.543Z,17.71
2023-05-10T05:40:07.604Z,18.32
2023-05-10T05:42:44.801Z,18.22
2023-05-10T05:45:22.521Z,18.62
2023-05-10T05:47:59.874Z,18.66
2023-05-10T05:50:38.552Z,18.98
2023-05-10T05:53:17.097Z,18.78
2023-05-10T05:56:02.396Z,18.91
2023-05-10T05:58:40.562Z,19.30
2023-05-10T06:01:18.769Z,19.46
2023-05-10T06:03:56.263Z,19.50
2023-05-10T06:06:34.938Z,19.68
2023-05-10T06:09:13.226Z,19.79
2023-05-10T06:11:51.314Z,19.85
2023-05-10T06:14:32.179Z,20.04
2023-05-10T06:17:07.301Z,20.05
2023-05-10T06:19:39.823Z,20.12
2023-05-10T06:22:18.153Z,20.27
2023-05-10T06:24:56.953Z,20.33
2023-05-10T06:27:35.207Z,20.53
2023-05-10T06:30:16.098Z,20.45
2023-05-10T06:32:46.699Z,20.79
2023-05-10T06:35:24.400Z,20.58
2023-05-10T06:38:02.263Z,20.27
2023-05-10T06:40:43.790Z,20.53
2023-05-10T06:43:21.848Z,20.71
2023-05-10T06:45:59.536Z,20.94
2023-05-10T06:48:37.070Z,21.16
2023-05-10T06:51:15.059Z,21.11
2023-05-10T06:53:50.002Z,21.26
2023-05-10T06:56:23.413Z,21.06
2023-05-10T06:59:00.835Z,20.79
2023-05-10T07:01:39.905Z,20.77
2023-05-10T07:04:11.080Z,20.75
2023-05-10T07:06:42.515Z,20.62
2023-05-10T07:09:20.873Z,20.69
2023-05-10T07:11:59.169Z,20.62
2023-05-10T07:14:37.144Z,21.01
2023-05-10T07:17:11.342Z,21.50
2023-05-10T07:19:42.198Z,21.55
2023-05-10T07:22:20.287Z,21.48
2023-05-10T07:24:58.770Z,21.43
2023-05-10T07:27:30.568Z,21.55
2023-05-10T07:30:10.353Z,21.51
2023-05-10T07:32:44.655Z,21.46
2023-05-10T07:35:22.208Z,21.54
2023-05-10T07:37:56.638Z,21.44
2023-05-10T07:40:35.122Z,21.25
2023-05-10T07:43:07.514Z,21.57
2023-05-10T07:45:43.273Z,21.25
2023-05-10T07:48:22.961Z,21.38
2023-05-10T07:50:58.971Z,21.38
2023-05-10T07:53:33.894Z,21.33
2023-05-10T07:56:33.110Z,21.59
2023-05-10T07:59:07.572Z,21.69
2023-05-10T08:01:39.157Z,21.91
2023-05-10T08:04:18.383Z,21.74
2023-05-10T08:06:50.595Z,21.75
2023-05-10T08:09:28.954Z,21.78
2023-05-10T08:12:03.006Z,21.85
2023-05-10T08:14:42.024Z,21.78
2023-05-10T08:17:20.495Z,21.72
2023-05-10T08:19:59.672Z,21.86
2023-05-10T08:22:32.261Z,21.99
2023-05-10T08:25:04.524Z,22.23
2023-05-10T08:27:42.656Z,22.10
2023-05-10T08:30:20.054Z,21.82
2023-05-10T08:32:58.399Z,21.83
2023-05-10T08:35:29.678Z,21.82
2023-05-10T08:38:08.782Z,22.00
2023-05-10T08:40:44.716Z,22.02
2023-05-10T08:43:23.159Z,22.23
2023-05-10T08:46:04.402Z,22.10
2023-05-10T08:48:44.086Z,22.07
2023-05-10T08:51:28.646Z,22.05
2023-05-10T08:54:08.787Z,22.21
2023-05-10T08:56:49.232Z,22.07
2023-05-10T08:59:28.030Z,22.09
2023-05-10T09:02:08.227Z,21.98
2023-05-10T09:04:47.447Z,21.76
2023-05-10T09:07:25.821Z,21.61
2023-05-10T09:10:05.033Z,21.44
2023-05-10T09:12:46.321Z,21.46
2023-05-10T09:15:21.550Z,21.50
2023-05-10T09:18:02.945Z,21.59
2023-05-10T09:20:40.809Z,21.37
2023-05-10T09:23:18.980Z,21.12
2023-05-10T09:26:08.837Z,21.17
2023-05-10T09:29:04.598Z,21.48
2023-05-10T09:31:56.279Z,21.28
2023-05-10T09:34:43.708Z,21.43
2023-05-10T09:37:32.158Z,21.49
2023-05-10T09:40:17.175Z,21.46
2023-05-10T09:43:00.227Z,21.31
2023-05-10T09:45:39.486Z,21.43
2023-05-10T09:48:18.100Z,21.62
2023-05-10T09:51:03.691Z,21.93
2023-05-10T09:53:42.111Z,21.85
2023-05-10T09:56:14.909Z,21.60
2023-05-10T09:59:07.212Z,21.17
2023-05-10T10:01:52.684Z,20.88
2023-05-10T10:04:27.471Z,20.84
2023-05-10T10:07:07.281Z,20.83
2023-05-10T10:09:46.359Z,21.10
2023-05-10T10:12:26.311Z,20.96
2023-05-10T10:15:06.426Z,20.82
2023-05-10T10:17:43.946Z,20.91
2023-05-10T10:20:17.822Z,21.02
2023-05-10T10:22:57.418Z,20.92
2023-05-10T10:25:35.715Z,21.19
2023-05-10T10:28:27.561Z,21.34
2023-05-10T10:31:20.396Z,21.25
2023-05-10T10:34:11.105Z,21.32
2023-05-10T10:36:57.214Z,21.41
2023-05-10T10:39:40.148Z,21.31
2023-05-10T10:42:16.401Z,20.72
2023-05-10T10:45:15.635Z,20.51
2023-05-10T10:47:48.190Z,20.42
2023-05-10T10:50:27.686Z,20.38
2023-05-10T10:53:14.643Z,20.60
2023-05-10T10:55:49.956Z,20.69
2023-05-10T10:58:36.308Z,20.54
2023-05-10T11:01:19.794Z,20.54
2023-05-10T11:04:22.921Z,20.43
2023-05-10T11:07:22.052Z,20.30
2023-05-10T11:10:06.890Z,20.11
2023-05-10T11:13:11.464Z,20.05
2023-05-10T11:15:52.301Z,19.93
2023-05-10T11:18:37.031Z,19.90
2023-05-10T11:21:12.062Z,19.99
2023-05-10T11:24:00.122Z,19.99
2023-05-10T11:26:45.543Z,19.87
2023-05-10T11:29:31.672Z,19.67
2023-05-10T11:32:11.706Z,19.38
2023-05-10T11:34:52.154Z,19.32
2023-05-10T11:37:38.613Z,19.44
2023-05-10T11:40:17.070Z,19.72
2023-05-10T11:42:55.786Z,19.94
2023-05-10T11:45:37.315Z,19.99
2023-05-10T11:48:18.892Z,19.73
2023-05-10T11:50:58.779Z,19.66
2023-05-10T11:53:40.939Z,19.68
2023-05-10T11:56:13.572Z,19.76
2023-05-10T11:58:55.562Z,19.53
2023-05-10T12:01:35.162Z,19.47
2023-05-10T12:04:13.682Z,19.43
2023-05-10T12:06:51.305Z,19.46
2023-05-10T12:09:42.720Z,19.53
2023-05-10T12:12:25.711Z,19.61
2023-05-10T12:15:04.933Z,19.52
2023-05-10T12:17:46.708Z,19.42
2023-05-10T12:20:30.083Z,19.47
2023-05-10T12:23:11.251Z,19.38
2023-05-10T12:25:49.959Z,19.40
2023-05-10T12:28:31.380Z,19.51
2023-05-10T12:31:06.211Z,19.63
2023-05-10T12:33:48.900Z,19.67
2023-05-10T12:36:30.188Z,19.76
2023-05-10T12:39:11.403Z,19.62
2023-05-10T12:41:49.488Z,19.67
2023-05-10T12:44:26.146Z,19.81
2023-05-10T12:46:58.318Z,19.93
2023-05-10T12:49:38.059Z,19.86
2023-05-10T12:52:15.784Z,19.78
2023-05-10T12:54:54.427Z,19.79
2023-05-10T12:57:32.335Z,19.73
2023-05-10T13:00:10.542Z,19.64
2023-05-10T13:02:49.114Z,19.71
2023-05-10T13:05:28.290Z,19.73
2023-05-10T13:08:07.750Z,19.68
2023-05-10T13:10:46.759Z,19.62
2023-05-10T13:13:25.332Z,19.56
2023-05-10T13:16:02.389Z,19.57
2023-05-10T13:18:38.763Z,19.76
2023-05-10T13:21:13.522Z,19.81
2023-05-10T13:23:51.713Z,19.73
2023-05-10T13:26:24.010Z,19.54
2023-05-10T13:29:04.083Z,19.49
2023-05-10T13:31:43.145Z,19.69
2023-05-10T13:34:22.063Z,19.80
2023-05-10T13:37:00.534Z,19.80
2023-05-10T13:39:39.433Z,19.72
2023-05-10T13:42:18.821Z,19.61
2023-05-10T13:44:53.576Z,19.73
2023-05-10T13:47:31.570Z,19.80
2023-05-10T13:50:10.817Z,19.77
2023-05-10T13:52:49.024Z,19.64
2023-05-10T13:55:27.158Z,19.55
2023-05-10T13:58:06.092Z,19.58
2023-05-10T14:00:49.340Z,19.59
2023-05-10T14:03:28.708Z,19.66
2023-05-10T14:06:09.145Z,19.63
2023-05-10T14:08:43.552Z,19.56
2023-05-10T14:11:16.315Z,19.46
2023-05-10T14:13:55.614Z,19.38
2023-05-10T14:16:34.652Z,19.35
2023-05-10T14:19:14.519Z,19.33
2023-05-10T14:21:54.018Z,19.35
2023-05-10T14:24:32.845Z,19.30
2023-05-10T14:27:13.238Z,19.30
2023-05-10T14:29:49.372Z,19.32
2023-05-10T14:32:28.688Z,19.38
2023-05-10T14:35:08.263Z,19.38
2023-05-10T14:37:47.960Z,19.34
2023-05-10T14:40:26.472Z,19.34
2023-05-10T14:42:58.062Z,19.29
2023-05-10T14:45:36.150Z,19.24
2023-05-10T14:48:19.664Z,19.23
2023-05-10T14:50:58.221Z,19.21
2023-05-10T14:53:38.239Z,19.28
2023-05-10T14:56:17.252Z,19.24
2023-05-10T14:58:56.115Z,19.22
2023-05-10T15:01:36.588Z,19.25
2023-05-10T15:04:20.563Z,19.15
2023-05-10T15:07:00.858Z,19.20
2023-05-10T15:09:39.177Z,19.26
2023-05-10T15:12:18.845Z,19.34
2023-05-10T15:14:54.894Z,19.28
2023-05-10T15:17:25.850Z,19.21
2023-05-10T15:19:56.415Z,19.24
2023-05-10T15:22:34.576Z,19.26
2023-05-10T15:25:13.593Z,19.07
2023-05-10T15:27:53.102Z,19.02
2023-05-10T15:30:31.644Z,18.96
2023-05-10T15:33:10.720Z,18.88
2023-05-10T15:35:49.646Z,18.81
2023-05-10T15:38:28.305Z,18.81
2023-05-10T15:41:07.196Z,18.85
2023-05-10T15:43:45.230Z,18.90
2023-05-10T15:46:23.932Z,18.87
2023-05-10T15:49:02.778Z,18.94
2023-05-10T15:51:41.261Z,18.89
2023-05-10T15:54:19.850Z,18.80
2023-05-10T15:56:58.090Z,18.75
2023-05-10T15:59:36.703Z,18.58
2023-05-10T16:02:18.454Z,18.63
2023-05-10T16:04:50.452Z,18.59
2023-05-10T16:07:21.268Z,18.58
2023-05-10T16:09:57.504Z,18.55
2023-05-10T16:12:36.676Z,18.51
2023-05-10T16:15:15.262Z,18.53
2023-05-10T16:17:53.220Z,18.55
2023-05-10T16:20:31.620Z,18.53
2023-05-10T16:23:15.721Z,18.59
2023-05-10T16:25:54.777Z,18.72
2023-05-10T16:28:33.946Z,18.86
2023-05-10T16:31:12.975Z,18.68
2023-05-10T16:33:53.293Z,18.54
2023-05-10T16:36:33.956Z,18.57
2023-05-10T16:39:13.188Z,18.47
2023-05-10T16:41:52.926Z,18.35
2023-05-10T16:44:26.696Z,18.07
2023-05-10T16:47:06.240Z,18.09
2023-05-10T16:49:46.761Z,17.97
2023-05-10T16:52:26.916Z,17.90
2023-05-10T16:55:11.139Z,17.78
2023-05-10T16:57:50.155Z,17.70
2023-05-10T17:00:33.062Z,17.64
2023-05-10T17:03:12.158Z,17.54
2023-05-10T17:05:51.325Z,17.43
2023-05-10T17:08:29.624Z,17.35
2023-05-10T17:11:12.986Z,17.30
2023-05-10T17:13:52.972Z,17.31
2023-05-10T17:16:32.300Z,17.30
2023-05-10T17:19:11.691Z,17.29
2023-05-10T17:21:50.369Z,17.18
2023-05-10T17:24:27.296Z,17.09
2023-05-10T17:27:05.605Z,16.91
2023-05-10T17:29:43.429Z,16.96
2023-05-10T17:32:21.130Z,16.89
2023-05-10T17:34:59.732Z,16.83
2023-05-10T17:37:37.994Z,16.78
2023-05-10T17:40:17.636Z,16.73
2023-05-10T17:42:52.480Z,16.68
2023-05-10T17:45:24.437Z,16.60
2023-05-10T17:48:00.793Z,16.54
2023-05-10T17:50:38.366Z,16.49
2023-05-10T17:53:15.762Z,16.42
2023-05-10T17:55:58.316Z,16.37
2023-05-10T17:58:38.611Z,16.31
2023-05-10T18:01:17.348Z,16.26
2023-05-10T18:03:56.461Z,16.19
2023-05-10T18:06:37.945Z,16.10
2023-05-10T18:09:16.650Z,16.04
2023-05-10T18:11:53.961Z,15.99
2023-05-10T18:14:40.698Z,15.94
2023-05-10T18:17:18.774Z,15.89
2023-05-10T18:19:56.124Z,15.83
2023-05-10T18:22:34.112Z,15.75
2023-05-10T18:25:13.574Z,15.72
2023-05-10T18:27:50.683Z,15.66
2023-05-10T18:30:28.203Z,15.61
2023-05-10T18:33:05.118Z,15.56
2023-05-10T18:35:42.078Z,15.50
2023-05-10T18:38:19.918Z,15.45
2023-05-10T18:40:58.361Z,15.40
2023-05-10T18:43:37.052Z,15.30
2023-05-10T18:46:09.246Z,15.28
2023-05-10T18:48:42.913Z,15.23
2023-05-10T18:51:20.859Z,15.19
2023-05-10T18:53:57.459Z,15.14
2023-05-10T18:56:34.979Z,15.08
2023-05-10T18:59:16.157Z,15.03
2023-05-10T19:01:54.933Z,14.98
2023-05-10T19:04:32.856Z,14.93
2023-05-10T19:07:08.712Z,14.87
2023-05-10T19:09:46.182Z,14.83
2023-05-10T19:12:24.117Z,14.77
2023-05-10T19:15:02.577Z,14.68
2023-05-10T19:17:36.078Z,14.67
2023-05-10T19:20:14.945Z,14.63
2023-05-10T19:25:34.135Z,14.50
2023-05-10T19:28:04.693Z,14.45
2023-05-10T19:30:42.556Z,14.40
2023-05-10T19:33:22.715Z,14.37
2023-05-10T19:36:00.310Z,14.34
2023-05-10T19:38:30.994Z,14.29
2023-05-10T19:41:09.164Z,14.25
2023-05-10T19:43:45.751Z,14.21
2023-05-10T19:46:23.281Z,14.18
2023-05-10T19:49:00.727Z,14.16
2023-05-10T19:51:38.411Z,14.11
2023-05-10T19:54:12.738Z,14.07
2023-05-10T19:56:44.917Z,14.02
2023-05-10T19:59:22.624Z,14.00
2023-05-10T20:01:59.869Z,13.97
2023-05-10T20:04:37.145Z,13.92
2023-05-10T20:07:14.489Z,13.89
2023-05-10T20:09:52.084Z,13.83
2023-05-10T20:12:29.651Z,13.77
2023-05-10T20:15:08.413Z,13.72
2023-05-10T20:17:46.783Z,13.66
2023-05-10T20:20:25.142Z,13.60
2023-05-10T20:23:04.768Z,13.53
2023-05-10T20:25:42.114Z,13.46
2023-05-10T20:28:25.727Z,13.43
2023-05-10T20:31:03.754Z,13.38
2023-05-10T20:33:41.224Z,13.33
2023-05-10T20:36:15.731Z,13.29
2023-05-10T20:38:48.311Z,13.24
2023-05-10T20:41:18.615Z,13.19
2023-05-10T20:43:56.405Z,13.14
2023-05-10T20:46:33.221Z,13.11
2023-05-10T20:49:12.689Z,13.07
2023-05-10T20:51:50.083Z,13.02
2023-05-10T20:54:27.326Z,12.99
2023-05-10T20:57:04.595Z,12.94
2023-05-10T20:59:41.688Z,12.90
2023-05-10T21:02:18.869Z,12.86
2023-05-10T21:04:49.454Z,12.79
2023-05-10T21:07:26.921Z,12.75
2023-05-10T21:10:04.276Z,12.71
2023-05-10T21:12:41.447Z,12.65
2023-05-10T21:15:12.178Z,12.59
2023-05-10T21:17:49.829Z,12.55
2023-05-10T21:20:27.403Z,12.48
2023-05-10T21:23:04.679Z,12.42
2023-05-10T21:25:44.348Z,12.34
2023-05-10T21:28:21.089Z,12.28
2023-05-10T21:30:57.704Z,12.24
2023-05-10T21:33:28.550Z,12.21
2023-05-10T21:36:05.902Z,12.16
2023-05-10T21:38:38.178Z,12.10
2023-05-10T21:41:15.033Z,12.05
2023-05-10T21:43:51.837Z,12.00
2023-05-10T21:46:29.096Z,11.96
2023-05-10T21:49:06.645Z,11.90
2023-05-10T21:51:43.376Z,11.84
2023-05-10T21:54:20.411Z,11.78
2023-05-10T21:56:50.650Z,11.73
2023-05-10T21:59:28.422Z,11.68
2023-05-10T22:02:05.783Z,11.66
2023-05-10T22:04:42.993Z,11.62
2023-05-10T22:07:19.989Z,11.57
2023-05-10T22:09:57.068Z,11.54
2023-05-10T22:12:27.491Z,11.47
2023-05-10T22:15:10.478Z,11.44
2023-05-10T22:17:49.587Z,11.40
2023-05-10T22:20:27.061Z,11.38
2023-05-10T22:23:04.101Z,11.35
2023-05-10T22:25:41.119Z,11.31
2023-05-10T22:28:11.238Z,11.28
2023-05-10T22:30:51.974Z,11.26
2023-05-10T22:33:27.097Z,11.22
2023-05-10T22:36:03.345Z,11.17
2023-05-10T22:38:40.283Z,11.15
2023-05-10T22:41:16.603Z,11.11
2023-05-10T22:43:52.882Z,11.08
2023-05-10T22:46:29.918Z,11.05
2023-05-10T22:49:07.578Z,11.02
2023-05-10T22:51:44.162Z,10.99
2023-05-10T22:54:21.710Z,10.95
2023-05-10T22:56:54.984Z,10.90
2023-05-10T22:59:29.232Z,10.89
2023-05-10T23:02:05.816Z,10.86
2023-05-10T23:04:42.402Z,10.83
2023-05-10T23:07:20.168Z,10.80
2023-05-10T23:09:51.289Z,10.77
2023-05-10T23:12:27.388Z,10.68
2023-05-10T23:15:03.579Z,10.71
2023-05-10T23:17:40.495Z,10.67
2023-05-10T23:20:11.985Z,10.65
2023-05-10T23:22:48.045Z,10.62
2023-05-10T23:25:24.111Z,10.59
2023-05-10T23:28:00.060Z,10.57
2023-05-10T23:30:36.024Z,10.55
2023-05-10T23:33:11.167Z,10.46
2023-05-10T23:35:41.395Z,10.48
2023-05-10T23:38:11.985Z,10.47
2023-05-10T23:40:50.134Z,10.44
2023-05-10T23:43:25.946Z,10.41
2023-05-10T23:46:02.154Z,10.38
2023-05-10T23:48:38.408Z,10.35
2023-05-10T23:51:14.321Z,10.33
2023-05-10T23:53:50.619Z,10.30
2023-05-10T23:56:27.083Z,10.27
2023-05-10T23:59:03.265Z,10.24
